createdAt,value
2019-04-29T00:01:38.490Z,100.00
2019-04-29T00:04:11.643Z,100.00
2019-04-29T00:06:45.153Z,100.00
2019-04-29T00:09:19.073Z,100.00
2019-04-29T00:11:51.726Z,100.00
2019-04-29T00:14:24.761Z,100.00
2019-04-29T00:17:10.439Z,100.00
2019-04-29T00:19:59.957Z,100.00
2019-04-29T00:22:32.538Z,100.00
2019-04-29T00:25:05.734Z,100.00
2019-04-29T00:27:38.623Z,100.00
2019-04-29T00:30:18.785Z,100.00
2019-04-29T00:32:51.866Z,100.00
2019-04-29T00:35:25.089Z,100.00
2019-04-29T00:38:17.285Z,100.00
2019-04-29T00:41:06.371Z,100.00
2019-04-29T00:43:45.254Z,100.00
2019-04-29T00:46:17.996Z,100.00
2019-04-29T00:48:51.015Z,100.00
2019-04-29T00:51:24.548Z,100.00
2019-04-29T00:54:05.717Z,100.00
2019-04-29T00:56:39.634Z,100.00
2019-04-29T00:59:12.127Z,100.00
2019-04-29T01:01:44.962Z,100.00
2019-04-29T01:04:18.087Z,100.00
2019-04-29T01:06:50.934Z,100.00
2019-04-29T01:09:23.722Z,100.00
2019-04-29T01:11:56.618Z,100.00
2019-04-29T01:14:30.261Z,100.00
2019-04-29T01:17:04.099Z,100.00
2019-04-29T01:19:37.451Z,100.00
2019-04-29T01:22:10.059Z,100.00
2019-04-29T01:24:42.531Z,100.00
2019-04-29T01:27:21.637Z,100.00
2019-04-29T01:29:54.269Z,100.00
2019-04-29T01:32:26.788Z,100.00
2019-04-29T01:34:59.589Z,100.00
2019-04-29T01:37:38.089Z,100.00
2019-04-29T01:40:40.167Z,100.00
2019-04-29T01:43:12.787Z,100.00
2019-04-29T01:45:45.385Z,100.00
2019-04-29T01:48:18.327Z,100.00
2019-04-29T01:50:51.966Z,100.00
2019-04-29T01:53:24.498Z,100.00
2019-04-29T01:55:57.259Z,100.00
2019-04-29T01:58:30.166Z,100.00
2019-04-29T02:01:02.932Z,100.00
2019-04-29T02:03:40.985Z,100.00
2019-04-29T02:06:13.570Z,100.00
2019-04-29T02:08:46.721Z,100.00
2019-04-29T02:11:19.263Z,100.00
2019-04-29T02:13:51.914Z,100.00
2019-04-29T02:16:24.629Z,100.00
2019-04-29T02:18:57.260Z,100.00
2019-04-29T02:21:29.831Z,100.00
2019-04-29T02:24:14.145Z,100.00
2019-04-29T02:26:46.834Z,100.00
2019-04-29T02:29:19.417Z,100.00
2019-04-29T02:31:53.547Z,100.00
2019-04-29T02:34:26.201Z,100.00
2019-04-29T02:37:01.246Z,100.00
2019-04-29T02:39:44.188Z,100.00
2019-04-29T02:42:22.283Z,100.00
2019-04-29T02:44:56.465Z,100.00
2019-04-29T02:47:29.234Z,100.00
2019-04-29T02:50:01.809Z,100.00
2019-04-29T02:52:35.258Z,100.00
2019-04-29T02:55:12.425Z,100.00
2019-04-29T02:57:53.907Z,100.00
2019-04-29T03:01:17.836Z,100.00
2019-04-29T03:03:59.722Z,100.00
2019-04-29T03:06:32.347Z,100.00
2019-04-29T03:09:08.150Z,100.00
2019-04-29T03:11:41.001Z,100.00
2019-04-29T03:14:13.780Z,100.00
2019-04-29T03:16:46.436Z,100.00
2019-04-29T03:19:28.123Z,100.00
2019-04-29T03:22:02.811Z,100.00
2019-04-29T03:24:35.608Z,100.00
2019-04-29T03:27:08.239Z,100.00
2019-04-29T03:29:40.595Z,100.00
2019-04-29T03:32:13.748Z,100.00
2019-04-29T03:34:46.324Z,100.00
2019-04-29T03:37:19.855Z,100.00
2019-04-29T03:39:56.164Z,100.00
2019-04-29T03:42:29.575Z,100.00
2019-04-29T03:45:03.905Z,100.00
2019-04-29T03:47:37.224Z,100.00
2019-04-29T03:50:10.303Z,100.00
2019-04-29T03:52:42.894Z,100.00
2019-04-29T03:55:16.733Z,100.00
2019-04-29T03:57:49.756Z,100.00
2019-04-29T04:00:22.459Z,100.00
2019-04-29T04:03:07.395Z,100.00
2019-04-29T04:05:55.203Z,100.00
2019-04-29T04:08:33.745Z,100.00
2019-04-29T04:11:06.367Z,100.00
2019-04-29T04:13:39.053Z,100.00
2019-04-29T04:16:25.764Z,100.00
2019-04-29T04:19:06.466Z,100.00
2019-04-29T04:21:39.103Z,100.00
2019-04-29T04:24:12.008Z,100.00
2019-04-29T04:26:44.527Z,100.00
2019-04-29T04:29:17.162Z,100.00
2019-04-29T04:31:50.925Z,100.00
2019-04-29T04:34:23.556Z,100.00
2019-04-29T04:37:00.377Z,100.00
2019-04-29T04:39:37.901Z,100.00
2019-04-29T04:42:11.070Z,100.00
2019-04-29T04:44:48.519Z,100.00
2019-04-29T04:47:21.400Z,100.00
2019-04-29T04:49:54.387Z,100.00
2019-04-29T04:52:26.996Z,100.00
2019-04-29T04:54:59.738Z,100.00
2019-04-29T04:57:32.266Z,100.00
2019-04-29T05:00:14.291Z,100.00
2019-04-29T05:02:46.872Z,100.00
2019-04-29T05:05:20.502Z,100.00
2019-04-29T05:07:53.599Z,100.00
2019-04-29T05:10:26.739Z,100.00
2019-04-29T05:12:59.080Z,100.00
2019-04-29T05:15:31.631Z,100.00
2019-04-29T05:18:04.163Z,100.00
2019-04-29T05:20:36.744Z,100.00
2019-04-29T05:23:10.334Z,100.00
2019-04-29T05:25:43.174Z,100.00
2019-04-29T05:28:16.942Z,100.00
2019-04-29T05:30:50.562Z,100.00
2019-04-29T05:33:23.115Z,100.00
2019-04-29T05:36:11.906Z,100.00
2019-04-29T05:38:49.847Z,100.00
2019-04-29T05:41:25.610Z,100.00
2019-04-29T05:44:11.686Z,100.00
2019-04-29T05:46:49.987Z,100.00
2019-04-29T05:49:28.232Z,100.00
2019-04-29T05:52:16.792Z,100.00
2019-04-29T05:54:49.242Z,100.00
2019-04-29T05:57:25.273Z,100.00
2019-04-29T05:59:58.686Z,100.00
2019-04-29T06:02:33.716Z,100.00
2019-04-29T06:05:08.399Z,100.00
2019-04-29T06:07:40.994Z,100.00
2019-04-29T06:10:18.119Z,100.00
2019-04-29T06:12:56.276Z,100.00
2019-04-29T06:15:28.862Z,100.00
2019-04-29T06:18:04.243Z,100.00
2019-04-29T06:20:36.783Z,100.00
2019-04-29T06:23:10.888Z,100.00
2019-04-29T06:25:44.255Z,100.00
2019-04-29T06:28:16.826Z,100.00
2019-04-29T06:30:51.598Z,100.00
2019-04-29T06:33:29.209Z,100.00
2019-04-29T06:36:03.686Z,100.00
2019-04-29T06:38:38.002Z,100.00
2019-04-29T06:41:13.884Z,100.00
2019-04-29T06:43:48.366Z,100.00
2019-04-29T06:46:21.718Z,100.00
2019-04-29T06:49:10.241Z,100.00
2019-04-29T06:51:44.247Z,100.00
2019-04-29T06:54:16.895Z,100.00
2019-04-29T06:56:52.486Z,100.00
2019-04-29T06:59:25.038Z,100.00
2019-04-29T07:01:57.615Z,100.00
2019-04-29T07:04:34.917Z,100.00
2019-04-29T07:07:10.598Z,100.00
2019-04-29T07:09:46.707Z,100.00
2019-04-29T07:12:21.508Z,100.00
2019-04-29T07:14:54.114Z,100.00
2019-04-29T07:17:28.081Z,100.00
2019-04-29T07:20:03.421Z,100.00
2019-04-29T07:22:36.199Z,100.00
2019-04-29T07:25:09.048Z,100.00
2019-04-29T07:27:44.241Z,100.00
2019-04-29T07:30:17.699Z,100.00
2019-04-29T07:32:50.517Z,100.00
2019-04-29T07:35:22.968Z,97.68
2019-04-29T07:38:04.534Z,94.79
2019-04-29T07:40:44.551Z,92.46
2019-04-29T07:43:18.786Z,92.19
2019-04-29T07:46:16.463Z,86.97
2019-04-29T07:49:01.391Z,84.94
2019-04-29T07:51:39.419Z,82.07
2019-04-29T07:54:18.220Z,81.50
2019-04-29T07:56:53.325Z,77.15
2019-04-29T07:59:27.353Z,79.05
2019-04-29T08:02:01.455Z,74.68
2019-04-29T08:04:34.796Z,73.68
2019-04-29T08:07:11.431Z,74.66
2019-04-29T08:09:44.383Z,74.65
2019-04-29T08:12:20.377Z,72.75
2019-04-29T08:14:58.581Z,72.96
2019-04-29T08:17:39.426Z,71.30
2019-04-29T08:20:12.218Z,71.52
2019-04-29T08:22:46.339Z,69.27
2019-04-29T08:25:21.681Z,65.21
2019-04-29T08:27:59.280Z,62.08
2019-04-29T08:30:34.224Z,63.89
2019-04-29T08:33:11.997Z,60.91
2019-04-29T08:35:46.983Z,58.40
2019-04-29T08:38:19.721Z,56.50
2019-04-29T08:40:52.844Z,56.68
2019-04-29T08:43:46.682Z,57.00
2019-04-29T08:46:29.198Z,51.21
2019-04-29T08:49:06.136Z,52.36
2019-04-29T08:51:41.931Z,52.73
2019-04-29T08:54:16.117Z,53.41
2019-04-29T08:57:02.961Z,52.88
2019-04-29T08:59:37.604Z,53.67
2019-04-29T09:02:12.761Z,55.79
2019-04-29T09:04:53.626Z,51.71
2019-04-29T09:07:32.605Z,48.98
2019-04-29T09:10:06.908Z,48.59
2019-04-29T09:12:42.791Z,48.26
2019-04-29T09:15:18.069Z,46.83
2019-04-29T09:17:51.763Z,47.81
2019-04-29T09:20:24.782Z,47.35
2019-04-29T09:23:07.980Z,46.08
2019-04-29T09:26:01.725Z,45.35
2019-04-29T09:28:37.937Z,45.45
2019-04-29T09:31:11.148Z,46.25
2019-04-29T09:33:49.284Z,47.89
2019-04-29T09:36:28.746Z,49.10
2019-04-29T09:39:01.667Z,48.60
2019-04-29T09:41:48.674Z,48.74
2019-04-29T09:44:28.491Z,47.10
2019-04-29T09:47:04.157Z,44.55
2019-04-29T09:49:41.071Z,44.96
2019-04-29T09:52:13.703Z,44.35
2019-04-29T09:54:46.262Z,44.65
2019-04-29T09:57:19.335Z,44.00
2019-04-29T10:00:05.336Z,46.28
2019-04-29T10:02:51.063Z,46.17
2019-04-29T10:05:43.567Z,43.95
2019-04-29T10:08:17.974Z,43.31
2019-04-29T10:10:52.605Z,42.28
2019-04-29T10:13:25.962Z,42.85
2019-04-29T10:16:14.257Z,44.01
2019-04-29T10:18:53.594Z,42.71
2019-04-29T10:21:28.247Z,42.51
2019-04-29T10:24:10.448Z,43.54
2019-04-29T10:26:45.013Z,41.69
2019-04-29T10:29:21.865Z,41.46
2019-04-29T10:31:54.653Z,40.10
2019-04-29T10:34:31.632Z,39.03
2019-04-29T10:37:09.326Z,39.36
2019-04-29T10:40:11.007Z,39.54
2019-04-29T10:43:15.412Z,39.18
2019-04-29T10:46:27.219Z,40.35
2019-04-29T10:49:05.830Z,41.43
2019-04-29T10:51:38.662Z,41.61
2019-04-29T10:54:14.559Z,42.73
2019-04-29T10:56:49.988Z,40.31
2019-04-29T10:59:35.891Z,39.79
2019-04-29T11:02:28.408Z,39.57
2019-04-29T11:05:11.880Z,38.57
2019-04-29T11:07:45.287Z,37.33
2019-04-29T11:10:25.731Z,39.41
2019-04-29T11:12:59.615Z,40.00
2019-04-29T11:15:35.515Z,39.69
2019-04-29T11:18:08.233Z,39.72
2019-04-29T11:20:40.687Z,40.68
2019-04-29T11:23:26.201Z,41.61
2019-04-29T11:26:20.699Z,41.78
2019-04-29T11:29:09.020Z,39.39
2019-04-29T11:31:43.657Z,40.52
2019-04-29T11:34:23.724Z,41.81
2019-04-29T11:37:00.609Z,42.40
2019-04-29T11:39:34.498Z,42.61
2019-04-29T11:42:09.606Z,42.09
2019-04-29T11:45:09.487Z,39.58
2019-04-29T11:47:44.508Z,40.69
2019-04-29T11:50:28.807Z,41.94
2019-04-29T11:53:01.567Z,43.80
2019-04-29T11:55:35.378Z,43.40
2019-04-29T11:58:21.822Z,43.63
2019-04-29T12:01:10.622Z,43.43
2019-04-29T12:03:44.026Z,42.00
2019-04-29T12:06:20.853Z,39.15
2019-04-29T12:08:56.554Z,39.19
2019-04-29T12:11:35.841Z,40.87
2019-04-29T12:14:23.829Z,41.93
2019-04-29T12:17:14.640Z,42.33
2019-04-29T12:19:49.965Z,42.27
2019-04-29T12:22:30.697Z,41.66
2019-04-29T12:25:07.147Z,40.62
2019-04-29T12:27:40.003Z,39.08
2019-04-29T12:30:24.315Z,39.92
2019-04-29T12:33:04.048Z,41.64
2019-04-29T12:35:51.626Z,41.57
2019-04-29T12:38:39.581Z,39.52
2019-04-29T12:41:21.054Z,38.35
2019-04-29T12:44:09.125Z,39.35
2019-04-29T12:47:03.575Z,39.91
2019-04-29T12:49:36.621Z,40.34
2019-04-29T12:52:11.087Z,39.46
2019-04-29T12:54:46.056Z,40.37
2019-04-29T12:57:23.510Z,40.54
2019-04-29T13:00:00.470Z,40.29
2019-04-29T13:03:00.151Z,40.01
2019-04-29T13:05:58.544Z,39.32
2019-04-29T13:08:36.497Z,37.89
2019-04-29T13:11:09.479Z,36.92
2019-04-29T13:13:42.863Z,38.12
2019-04-29T13:16:39.822Z,37.75
2019-04-29T13:19:35.726Z,39.49
2019-04-29T13:22:15.492Z,39.51
2019-04-29T13:24:52.858Z,39.81
2019-04-29T13:27:26.713Z,39.94
2019-04-29T13:30:00.185Z,40.33
2019-04-29T13:32:35.765Z,40.78
2019-04-29T13:35:12.716Z,40.76
2019-04-29T13:37:52.462Z,39.83
2019-04-29T13:40:37.538Z,39.81
2019-04-29T13:43:12.202Z,40.47
2019-04-29T13:46:04.971Z,39.71
2019-04-29T13:48:55.186Z,39.43
2019-04-29T13:51:35.775Z,38.78
2019-04-29T13:54:09.807Z,39.64
2019-04-29T13:56:55.582Z,39.05
2019-04-29T13:59:49.233Z,39.61
2019-04-29T14:02:33.370Z,40.35
2019-04-29T14:05:10.523Z,42.17
2019-04-29T14:07:44.083Z,42.19
2019-04-29T14:10:19.064Z,42.46
2019-04-29T14:13:08.994Z,43.51
2019-04-29T14:15:42.428Z,43.49
2019-04-29T14:18:17.101Z,43.02
2019-04-29T14:20:53.124Z,43.49
2019-04-29T14:23:28.422Z,41.67
2019-04-29T14:26:02.312Z,41.90
2019-04-29T14:28:35.599Z,42.73
2019-04-29T14:31:08.720Z,43.90
2019-04-29T14:33:55.910Z,44.17
2019-04-29T14:36:32.747Z,44.16
2019-04-29T14:39:13.070Z,44.67
2019-04-29T14:44:58.138Z,44.17
2019-04-29T14:47:41.883Z,44.42
2019-04-29T14:50:20.480Z,44.67
2019-04-29T14:52:55.454Z,43.61
2019-04-29T14:55:29.137Z,43.65
2019-04-29T14:58:01.753Z,43.59
2019-04-29T15:01:00.767Z,44.08
2019-04-29T15:03:55.243Z,43.75
2019-04-29T15:06:29.641Z,43.62
2019-04-29T15:09:02.516Z,42.48
2019-04-29T15:11:47.304Z,44.05
2019-04-29T15:14:30.493Z,44.06
2019-04-29T15:17:18.555Z,45.13
2019-04-29T15:20:01.815Z,45.62
2019-04-29T15:22:36.541Z,44.80
2019-04-29T15:25:11.148Z,44.91
2019-04-29T15:27:43.870Z,44.74
2019-04-29T15:30:23.271Z,43.27
2019-04-29T15:32:57.901Z,43.42
2019-04-29T15:35:33.222Z,45.17
2019-04-29T15:38:09.756Z,44.88
2019-04-29T15:40:43.432Z,44.64
2019-04-29T15:43:17.781Z,45.30
2019-04-29T15:45:58.562Z,46.05
2019-04-29T15:48:31.986Z,46.59
2019-04-29T15:51:09.248Z,47.58
2019-04-29T15:53:49.903Z,47.93
2019-04-29T15:56:28.847Z,47.82
2019-04-29T15:59:09.736Z,48.47
2019-04-29T16:01:42.953Z,48.50
2019-04-29T16:04:27.744Z,48.18
2019-04-29T16:07:22.490Z,48.43
2019-04-29T16:14:54.948Z,48.71
2019-04-29T16:17:31.775Z,49.68
2019-04-29T16:20:14.055Z,50.01
2019-04-29T16:22:46.728Z,50.32
2019-04-29T16:25:25.597Z,49.87
2019-04-29T16:27:58.310Z,50.21
2019-04-29T16:30:31.771Z,50.80
2019-04-29T16:33:12.973Z,51.68
2019-04-29T16:35:48.118Z,52.65
2019-04-29T16:38:21.588Z,52.79
2019-04-29T16:41:19.459Z,52.87
2019-04-29T16:43:54.994Z,53.15
2019-04-29T16:46:37.295Z,53.02
2019-04-29T16:49:11.922Z,52.99
2019-04-29T16:51:52.831Z,53.27
2019-04-29T16:54:32.042Z,53.77
2019-04-29T16:57:06.983Z,54.12
2019-04-29T16:59:43.128Z,54.43
2019-04-29T17:02:25.424Z,54.49
2019-04-29T17:04:58.713Z,54.84
2019-04-29T17:07:32.696Z,54.99
2019-04-29T17:10:19.463Z,55.36
2019-04-29T17:12:53.743Z,55.87
2019-04-29T17:15:28.408Z,56.80
2019-04-29T17:18:38.059Z,57.76
2019-04-29T17:21:31.426Z,58.63
2019-04-29T17:24:05.706Z,58.83
2019-04-29T17:26:59.264Z,59.62
2019-04-29T17:34:56.134Z,60.86
2019-04-29T17:35:13.990Z,49.11
2019-04-29T17:35:18.849Z,59.82
2019-04-29T17:37:50.628Z,61.36
2019-04-29T17:40:25.038Z,61.82
2019-04-29T17:43:15.126Z,62.08
2019-04-29T17:46:14.052Z,62.36
2019-04-29T17:48:59.327Z,62.90
2019-04-29T17:51:38.488Z,62.66
2019-04-29T17:54:22.882Z,63.16
2019-04-29T17:57:26.355Z,63.40
2019-04-29T18:00:23.159Z,63.66
2019-04-29T18:03:26.663Z,63.34
2019-04-29T18:06:07.024Z,63.66
2019-04-29T18:08:50.713Z,63.68
2019-04-29T18:11:26.068Z,64.01
2019-04-29T18:14:00.289Z,64.17
2019-04-29T18:16:43.636Z,64.02
2019-04-29T18:19:30.849Z,64.07
2019-04-29T18:22:28.849Z,64.66
2019-04-29T18:25:30.449Z,65.07
2019-04-29T18:28:23.230Z,65.51
2019-04-29T18:31:05.951Z,65.75
2019-04-29T18:33:47.494Z,66.27
2019-04-29T18:36:45.660Z,66.29
2019-04-29T18:39:28.576Z,66.46
2019-04-29T18:42:06.985Z,66.75
2019-04-29T18:44:56.519Z,67.18
2019-04-29T18:47:38.859Z,67.19
2019-04-29T18:50:15.855Z,67.46
2019-04-29T18:52:49.834Z,68.11
2019-04-29T18:55:25.828Z,68.39
2019-04-29T18:58:02.092Z,68.74
2019-04-29T19:00:35.331Z,69.00
2019-04-29T19:03:11.866Z,69.48
2019-04-29T19:05:50.292Z,69.98
2019-04-29T19:08:29.014Z,70.40
2019-04-29T19:11:30.660Z,70.77
2019-04-29T19:14:07.793Z,71.11
2019-04-29T19:16:40.664Z,71.18
2019-04-29T19:19:15.382Z,71.71
2019-04-29T19:21:49.199Z,71.83
2019-04-29T19:24:21.827Z,71.92
2019-04-29T19:27:00.763Z,72.08
2019-04-29T19:29:38.792Z,72.43
2019-04-29T19:32:18.928Z,72.48
2019-04-29T19:35:04.022Z,72.52
2019-04-29T19:37:40.070Z,72.81
2019-04-29T19:40:14.908Z,72.89
2019-04-29T19:42:47.757Z,73.11
2019-04-29T19:45:22.357Z,73.23
2019-04-29T19:47:55.831Z,73.67
2019-04-29T19:50:29.113Z,73.92
2019-04-29T19:53:04.941Z,74.24
2019-04-29T19:55:42.214Z,74.59
2019-04-29T19:58:22.939Z,74.91
2019-04-29T20:01:13.813Z,75.28
2019-04-29T20:04:19.697Z,75.75
2019-04-29T20:07:07.301Z,76.25
2019-04-29T20:09:44.241Z,77.02
2019-04-29T20:12:19.504Z,77.45
2019-04-29T20:14:58.784Z,77.76
2019-04-29T20:17:53.937Z,78.27
2019-04-29T20:20:38.607Z,78.65
2019-04-29T20:23:11.628Z,78.82
2019-04-29T20:25:48.495Z,79.17
2019-04-29T20:28:23.368Z,79.18
2019-04-29T20:31:15.441Z,79.37
2019-04-29T20:33:51.653Z,79.49
2019-04-29T20:36:38.179Z,79.54
2019-04-29T20:39:22.876Z,79.94
2019-04-29T20:41:56.436Z,80.00
2019-04-29T20:44:29.772Z,79.78
2019-04-29T20:47:16.468Z,79.93
2019-04-29T20:49:53.850Z,80.22
2019-04-29T20:52:33.246Z,80.71
2019-04-29T20:55:09.436Z,80.47
2019-04-29T20:57:43.421Z,80.52
2019-04-29T21:00:24.926Z,80.33
2019-04-29T21:03:04.135Z,79.87
2019-04-29T21:05:48.261Z,79.18
2019-04-29T21:08:25.969Z,78.88
2019-04-29T21:11:14.298Z,78.57
2019-04-29T21:14:17.870Z,77.82
2019-04-29T21:16:52.411Z,78.04
2019-04-29T21:19:28.593Z,78.59
2019-04-29T21:22:01.907Z,78.89
2019-04-29T21:24:37.037Z,79.17
2019-04-29T21:27:15.317Z,79.64
2019-04-29T21:29:57.245Z,79.94
2019-04-29T21:32:35.319Z,80.06
2019-04-29T21:35:32.687Z,80.26
2019-04-29T21:38:28.355Z,80.64
2019-04-29T21:41:07.556Z,81.13
2019-04-29T21:43:48.850Z,80.81
2019-04-29T21:46:29.507Z,80.04
2019-04-29T21:49:11.497Z,80.20
2019-04-29T21:51:49.788Z,80.14
2019-04-29T21:54:22.780Z,79.92
2019-04-29T21:56:56.788Z,80.28
2019-04-29T21:59:32.492Z,80.72
2019-04-29T22:02:06.781Z,80.70
2019-04-29T22:04:44.990Z,80.84
2019-04-29T22:07:19.649Z,80.98
2019-04-29T22:09:52.550Z,81.09
2019-04-29T22:12:26.118Z,80.75
2019-04-29T22:14:59.490Z,80.66
2019-04-29T22:17:36.118Z,80.71
2019-04-29T22:20:10.334Z,80.47
2019-04-29T22:22:43.251Z,80.57
2019-04-29T22:25:17.467Z,79.72
2019-04-29T22:27:50.310Z,79.91
2019-04-29T22:30:26.585Z,79.77
2019-04-29T22:33:01.227Z,79.78
2019-04-29T22:35:37.341Z,80.23
2019-04-29T22:38:16.281Z,80.62
2019-04-29T22:40:59.353Z,80.95
2019-04-29T22:43:47.614Z,81.21
2019-04-29T22:46:20.133Z,81.21
2019-04-29T22:48:53.183Z,81.18
2019-04-29T22:51:25.693Z,81.34
2019-04-29T22:53:58.309Z,81.08
2019-04-29T22:56:32.743Z,81.36
2019-04-29T22:59:05.901Z,81.50
2019-04-29T23:01:42.285Z,81.41
2019-04-29T23:04:19.914Z,81.55
2019-04-29T23:06:52.506Z,81.58
2019-04-29T23:09:28.030Z,81.83
2019-04-29T23:12:00.571Z,82.00
2019-04-29T23:14:40.256Z,82.17
2019-04-29T23:17:18.210Z,82.16
2019-04-29T23:19:58.660Z,82.23
2019-04-29T23:22:44.113Z,82.22
2019-04-29T23:25:21.772Z,82.36
2019-04-29T23:27:59.278Z,82.35
2019-04-29T23:30:31.907Z,82.50
2019-04-29T23:33:04.810Z,82.63
2019-04-29T23:35:39.786Z,82.81
2019-04-29T23:38:12.515Z,82.89
2019-04-29T23:40:45.463Z,83.00
2019-04-29T23:43:20.021Z,83.40
2019-04-29T23:46:00.400Z,83.48
2019-04-29T23:48:39.412Z,83.63
2019-04-29T23:51:12.494Z,83.74
2019-04-29T23:53:46.721Z,83.93
2019-04-29T23:56:26.303Z,83.84
2019-04-29T23:59:14.860Z,83.64
